Time;durP1;ratioP1;P1;durP2;ratioP2;P2;SDS_P1;SDS_P2;PMS_P1;PMS_P2;Temp;Humidity;BMP_temperature;BMP_pressure;BME280_temperature;BME280_humidity;BME280_pressure;Samples;Min_cycle;Max_cycle;Signal;HPM_P1;HPM_P2
2021/09/02 00:00:35;;;;;;;;;;;;;;;;;;2081553;28;19952;-58
2021/09/02 00:01:36;;;;;;;;;;;;;;;;;;2085146;28;19924;-58
2021/09/02 00:02:37;;;;;;;;;;;;;;;;;;2089684;28;19921;-58
2021/09/02 00:03:38;;;;;;;;;;;;;;;;;;2089753;28;20407;-58
2021/09/02 00:04:39;;;;;;;;;;;;;;;;;;2088636;28;19921;-58
2021/09/02 00:05:39;;;;;;;;;;;;;;;;;;2081803;28;19921;-58
2021/09/02 00:06:40;;;;;;;;;;;;;;;;;;2081330;28;20282;-58
2021/09/02 00:07:41;;;;;;;;;;;;;;;;;;2087098;28;19928;-58
2021/09/02 00:08:42;;;;;;;;;;;;;;;;;;2081528;28;19921;-58
2021/09/02 00:09:43;;;;;;;;;;;;;;;;;;2081584;28;19921;-58
2021/09/02 00:10:43;;;;;;;;;;;;;;;;;;2086731;28;19921;-58
2021/09/02 00:11:44;;;;;;;;;;;;;;;;;;2089760;28;20365;-58
2021/09/02 00:12:45;;;;;;;;;;;;;;;;;;2089893;28;19986;-58
2021/09/02 00:13:46;;;;;;;;;;;;;;;;;;2087836;28;19921;-58
2021/09/02 00:14:47;;;;;;;;;;;;;;;;;;2089757;28;19921;-58
2021/09/02 00:15:47;;;;;;;;;;;;;;;;;;2089282;28;19932;-58
2021/09/02 00:16:48;;;;;;;;;;;;;;;;;;2089237;28;19968;-58
2021/09/02 00:17:49;;;;;;;;;;;;;;;;;;2089897;28;19928;-58
2021/09/02 00:18:50;;;;;;;;;;;;;;;;;;2087875;28;19978;-58
2021/09/02 00:19:51;;;;;;;;;;;;;;;;;;2089307;28;20380;-58
2021/09/02 00:20:51;;;;;;;;;;;;;;;;;;2089665;28;19924;-57
2021/09/02 00:21:52;;;;;;;;;;;;;;;;;;2087581;28;20003;-58
2021/09/02 00:22:53;;;;;;;;;;;;;;;;;;2089536;28;20282;-58
2021/09/02 00:23:54;;;;;;;;;;;;;;;;;;2089722;28;19920;-58
2021/09/02 00:24:55;;;;;;;;;;;;;;;;;;2087544;28;19921;-58
2021/09/02 00:25:55;;;;;;;;;;;;;;;;;;2089600;28;20325;-58
2021/09/02 00:26:56;;;;;;;;;;;;;;;;;;2089817;28;20286;-58
2021/09/02 00:27:57;;;;;;;;;;;;;;;;;;2087858;28;19920;-58
2021/09/02 00:28:58;;;;;;;;;;;;;;;;;;2081598;28;19921;-58
2021/09/02 00:29:59;;;;;;;;;;;;;;;;;;2081386;28;19975;-58
2021/09/02 00:31:00;;;;;;;;;;;;;;;;;;2086924;28;19924;-58
2021/09/02 00:32:00;;;;;;;;;;;;;;;;;;2081487;28;19971;-58
2021/09/02 00:33:01;;;;;;;;;;;;;;;;;;2081259;28;19920;-58
2021/09/02 00:34:02;;;;;;;;;;;;;;;;;;2087514;28;19929;-58
2021/09/02 00:35:03;;;;;;;;;;;;;;;;;;2089651;28;19920;-58
2021/09/02 00:36:04;;;;;;;;;;;;;;;;;;2089241;28;19921;-58
2021/09/02 00:37:05;;;;;;;;;;;;;;;;;;2086453;28;20369;-58
2021/09/02 00:38:06;;;;;;;;;;;;;;;;;;2081460;28;19925;-58
2021/09/02 00:39:06;;;;;;;;;;;;;;;;;;2082306;28;19949;-58
2021/09/02 00:40:07;;;;;;;;;;;;;;;;;;2087838;28;20366;-58
2021/09/02 00:41:08;;;;;;;;;;;;;;;;;;2089596;28;19921;-58
2021/09/02 00:42:09;;;;;;;;;;;;;;;;;;2089204;28;19921;-58
2021/09/02 00:43:10;;;;;;;;;;;;;;;;;;2087861;28;19921;-58
2021/09/02 00:44:10;;;;;;;;;;;;;;;;;;2089720;28;20401;-58
2021/09/02 00:45:11;;;;;;;;;;;;;;;;;;2088743;28;20066;-59
2021/09/02 00:46:12;;;;;;;;;;;;;;;;;;2088052;28;20378;-58
2021/09/02 00:47:13;;;;;;;;;;;;;;;;;;2089711;28;19975;-58
2021/09/02 00:48:14;;;;;;;;;;;;;;;;;;2088730;28;19921;-58
2021/09/02 00:49:15;;;;;;;;;;;;;;;;;;2084359;28;19971;-58
2021/09/02 00:50:16;;;;;;;;;;;;;;;;;;2081201;28;19920;-58
2021/09/02 00:51:16;;;;;;;;;;;;;;;;;;2082843;28;19974;-58
2021/09/02 00:52:17;;;;;;;;;;;;;;;;;;2083813;28;19921;-58
2021/09/02 00:53:18;;;;;;;;;;;;;;;;;;2081338;28;19929;-58
2021/09/02 00:54:19;;;;;;;;;;;;;;;;;;2084982;28;19920;-58
2021/09/02 00:55:20;;;;;;;;;;;;;;;;;;2088267;28;20243;-58
2021/09/02 00:56:20;;;;;;;;;;;;;;;;;;2089648;28;19924;-58
2021/09/02 00:57:21;;;;;;;;;;;;;;;;;;2087988;28;19978;-58
2021/09/02 00:58:22;;;;;;;;;;;;;;;;;;2088865;28;19940;-58
2021/09/02 00:59:23;;;;;;;;;;;;;;;;;;2089431;28;20447;-58
2021/09/02 01:00:24;;;;;;;;;;;;;;;;;;2088429;28;19927;-58
2021/09/02 01:01:25;;;;;;;;;;;;;;;;;;2082135;28;20012;-57
2021/09/02 01:02:26;;;;;;;;;;;;;;;;;;2081361;28;19921;-58
2021/09/02 01:03:27;;;;;;;;;;;;;;;;;;2085237;28;19920;-58
2021/09/02 01:04:28;;;;;;;;;;;;;;;;;;2089350;28;19925;-58
2021/09/02 01:05:29;;;;;;;;;;;;;;;;;;2089512;28;19924;-59
2021/09/02 01:06:30;;;;;;;;;;;;;;;;;;2087169;28;20011;-58
2021/09/02 01:07:31;;;;;;;;;;;;;;;;;;2089460;28;19925;-58
2021/09/02 01:08:31;;;;;;;;;;;;;;;;;;2089523;28;19921;-58
2021/09/02 01:09:32;;;;;;;;;;;;;;;;;;2087526;28;19928;-58
2021/09/02 01:10:33;;;;;;;;;;;;;;;;;;2081173;28;20513;-58
2021/09/02 01:11:34;;;;;;;;;;;;;;;;;;2080962;28;19920;-58
2021/09/02 01:12:35;;;;;;;;;;;;;;;;;;2087129;28;20448;-58
2021/09/02 01:13:36;;;;;;;;;;;;;;;;;;2081228;28;20392;-58
2021/09/02 01:14:37;;;;;;;;;;;;;;;;;;2081465;28;19936;-58
2021/09/02 01:15:37;;;;;;;;;;;;;;;;;;2086510;28;20312;-58
2021/09/02 01:16:38;;;;;;;;;;;;;;;;;;2081097;28;19928;-58
2021/09/02 01:17:39;;;;;;;;;;;;;;;;;;2082295;28;19927;-58
2021/09/02 01:18:40;;;;;;;;;;;;;;;;;;2087381;28;19975;-58
2021/09/02 01:19:41;;;;;;;;;;;;;;;;;;2090772;28;19925;-58
2021/09/02 01:20:42;;;;;;;;;;;;;;;;;;2090271;28;20130;-59
2021/09/02 01:21:42;;;;;;;;;;;;;;;;;;2089174;28;20380;-58
2021/09/02 01:22:43;;;;;;;;;;;;;;;;;;2090915;28;20380;-58
2021/09/02 01:23:44;;;;;;;;;;;;;;;;;;2090112;28;19924;-58
2021/09/02 01:24:45;;;;;;;;;;;;;;;;;;2089219;28;19927;-58
2021/09/02 01:25:46;;;;;;;;;;;;;;;;;;2090965;28;19924;-58
2021/09/02 01:26:47;;;;;;;;;;;;;;;;;;2089928;28;19924;-58
2021/09/02 01:27:48;;;;;;;;;;;;;;;;;;2085733;28;20029;-58
2021/09/02 01:28:48;;;;;;;;;;;;;;;;;;2082644;28;19932;-58
2021/09/02 01:29:49;;;;;;;;;;;;;;;;;;2085175;28;19974;-58
2021/09/02 01:30:50;;;;;;;;;;;;;;;;;;2085119;28;19929;-58
2021/09/02 01:31:51;;;;;;;;;;;;;;;;;;2082592;28;20559;-57
2021/09/02 01:32:52;;;;;;;;;;;;;;;;;;2085973;28;19924;-58
2021/09/02 01:33:52;;;;;;;;;;;;;;;;;;2084573;28;19921;-58
2021/09/02 01:34:53;;;;;;;;;;;;;;;;;;2082566;28;19921;-58
2021/09/02 01:35:54;;;;;;;;;;;;;;;;;;2086513;28;19921;-57
2021/09/02 01:36:55;;;;;;;;;;;;;;;;;;2083991;28;19921;-58
2021/09/02 01:37:56;;;;;;;;;;;;;;;;;;2082415;28;19927;-58
2021/09/02 01:38:58;;;;;;;;;;;;;;;;;;2086070;28;20258;-58
2021/09/02 01:39:59;;;;;;;;;;;;;;;;;;2090547;28;19928;-58
2021/09/02 01:41:00;;;;;;;;;;;;;;;;;;2090772;28;20498;-58
2021/09/02 01:42:01;;;;;;;;;;;;;;;;;;2088513;28;20366;-58
2021/09/02 01:43:02;;;;;;;;;;;;;;;;;;2090652;28;20266;-58
2021/09/02 01:44:02;;;;;;;;;;;;;;;;;;2090687;28;19999;-58
2021/09/02 01:45:03;;;;;;;;;;;;;;;;;;2089381;28;19921;-58
2021/09/02 01:46:04;;;;;;;;;;;;;;;;;;2082391;28;19971;-58
2021/09/02 01:47:05;;;;;;;;;;;;;;;;;;2082627;28;19967;-58
2021/09/02 01:48:06;;;;;;;;;;;;;;;;;;2087796;28;19990;-58
2021/09/02 01:49:07;;;;;;;;;;;;;;;;;;2090645;28;20259;-58
2021/09/02 01:50:08;;;;;;;;;;;;;;;;;;2090658;28;19928;-58
2021/09/02 01:51:09;;;;;;;;;;;;;;;;;;2085046;28;19927;-58
2021/09/02 01:52:09;;;;;;;;;;;;;;;;;;2082613;28;19921;-58
2021/09/02 01:53:10;;;;;;;;;;;;;;;;;;2082542;28;19932;-58
2021/09/02 01:54:11;;;;;;;;;;;;;;;;;;2088892;28;19920;-58
2021/09/02 01:55:12;;;;;;;;;;;;;;;;;;2090481;28;19987;-58
2021/09/02 01:56:13;;;;;;;;;;;;;;;;;;2090340;28;19921;-58
2021/09/02 01:57:14;;;;;;;;;;;;;;;;;;2087126;28;20357;-58
2021/09/02 01:58:14;;;;;;;;;;;;;;;;;;2082408;28;19928;-58
2021/09/02 01:59:15;;;;;;;;;;;;;;;;;;2083521;28;19921;-58
2021/09/02 02:00:16;;;;;;;;;;;;;;;;;;2088647;28;19928;-58
2021/09/02 02:01:17;;;;;;;;;;;;;;;;;;2090763;28;20362;-58
2021/09/02 02:02:18;;;;;;;;;;;;;;;;;;2089949;28;19921;-58
2021/09/02 02:03:19;;;;;;;;;;;;;;;;;;2085220;28;19920;-58
2021/09/02 02:04:19;;;;;;;;;;;;;;;;;;2082351;28;19921;-58
2021/09/02 02:05:20;;;;;;;;;;;;;;;;;;2084503;28;20071;-58
2021/09/02 02:06:21;;;;;;;;;;;;;;;;;;2088953;28;19927;-58
2021/09/02 02:07:22;;;;;;;;;;;;;;;;;;2090545;28;19920;-58
2021/09/02 02:08:23;;;;;;;;;;;;;;;;;;2089665;28;19965;-58
2021/09/02 02:09:23;;;;;;;;;;;;;;;;;;2089134;28;19974;-58
2021/09/02 02:10:26;;;;;;;;;;;;;;;;;;2090578;28;19927;-58
2021/09/02 02:11:27;;;;;;;;;;;;;;;;;;2089605;28;20456;-58
2021/09/02 02:12:28;;;;;;;;;;;;;;;;;;2089038;28;19928;-58
2021/09/02 02:13:29;;;;;;;;;;;;;;;;;;2090599;28;20449;-58
2021/09/02 02:14:30;;;;;;;;;;;;;;;;;;2088480;28;19943;-58
2021/09/02 02:15:31;;;;;;;;;;;;;;;;;;2089977;28;19921;-58
2021/09/02 02:16:31;;;;;;;;;;;;;;;;;;2090425;28;19940;-58
2021/09/02 02:17:32;;;;;;;;;;;;;;;;;;2088213;28;19928;-58
2021/09/02 02:18:33;;;;;;;;;;;;;;;;;;2089472;28;19920;-58
2021/09/02 02:19:34;;;;;;;;;;;;;;;;;;2090520;28;19925;-58
2021/09/02 02:20:35;;;;;;;;;;;;;;;;;;2089337;28;20006;-58
2021/09/02 02:21:35;;;;;;;;;;;;;;;;;;2082642;28;19971;-59
2021/09/02 02:22:36;;;;;;;;;;;;;;;;;;2082209;28;20038;-58
2021/09/02 02:23:37;;;;;;;;;;;;;;;;;;2086755;28;19921;-58
2021/09/02 02:24:38;;;;;;;;;;;;;;;;;;2090406;28;19920;-58
2021/09/02 02:25:39;;;;;;;;;;;;;;;;;;2090418;28;19925;-58
2021/09/02 02:26:39;;;;;;;;;;;;;;;;;;2087824;28;20325;-58
2021/09/02 02:27:40;;;;;;;;;;;;;;;;;;2090448;28;19931;-58
2021/09/02 02:28:41;;;;;;;;;;;;;;;;;;2090352;28;19924;-58
2021/09/02 02:29:42;;;;;;;;;;;;;;;;;;2089049;28;20114;-58
2021/09/02 02:30:43;;;;;;;;;;;;;;;;;;2090539;28;19920;-58
2021/09/02 02:31:43;;;;;;;;;;;;;;;;;;2089970;28;19944;-58
2021/09/02 02:32:44;;;;;;;;;;;;;;;;;;2087594;28;19920;-58
2021/09/02 02:33:45;;;;;;;;;;;;;;;;;;2082149;28;19921;-58
2021/09/02 02:34:46;;;;;;;;;;;;;;;;;;2082784;28;19928;-58
2021/09/02 02:35:47;;;;;;;;;;;;;;;;;;2086897;28;19927;-58
2021/09/02 02:36:48;;;;;;;;;;;;;;;;;;2082066;28;19925;-58
2021/09/02 02:37:49;;;;;;;;;;;;;;;;;;2083155;28;19967;-58
2021/09/02 02:38:49;;;;;;;;;;;;;;;;;;2088660;28;19925;-58
2021/09/02 02:39:50;;;;;;;;;;;;;;;;;;2090257;28;19974;-59
2021/09/02 02:40:51;;;;;;;;;;;;;;;;;;2089722;28;19924;-59
2021/09/02 02:41:52;;;;;;;;;;;;;;;;;;2088497;28;20054;-58
2021/09/02 02:42:53;;;;;;;;;;;;;;;;;;2090291;28;19974;-58
2021/09/02 02:43:54;;;;;;;;;;;;;;;;;;2089638;28;20015;-58
2021/09/02 02:44:55;;;;;;;;;;;;;;;;;;2085417;28;19921;-58
2021/09/02 02:45:58;;;;;;;;;;;;;;;;;;2081964;28;19928;-60
2021/09/02 02:46:58;;;;;;;;;;;;;;;;;;2084986;28;20332;-58
2021/09/02 02:47:59;;;;;;;;;;;;;;;;;;2088992;28;19971;-58
2021/09/02 02:49:00;;;;;;;;;;;;;;;;;;2090375;28;19928;-59
2021/09/02 02:50:01;;;;;;;;;;;;;;;;;;2089266;28;19925;-59
2021/09/02 02:51:02;;;;;;;;;;;;;;;;;;2081955;28;19921;-59
2021/09/02 02:52:02;;;;;;;;;;;;;;;;;;2082011;28;19975;-59
2021/09/02 02:53:03;;;;;;;;;;;;;;;;;;2085777;28;19920;-59
2021/09/02 02:54:04;;;;;;;;;;;;;;;;;;2089451;28;19920;-58
2021/09/02 02:55:05;;;;;;;;;;;;;;;;;;2090264;28;20396;-58
2021/09/02 02:56:06;;;;;;;;;;;;;;;;;;2087967;28;20110;-58
2021/09/02 02:57:07;;;;;;;;;;;;;;;;;;2090208;28;20013;-59
2021/09/02 02:58:08;;;;;;;;;;;;;;;;;;2090265;28;20370;-59
2021/09/02 02:59:09;;;;;;;;;;;;;;;;;;2089065;28;20028;-58
2021/09/02 03:00:09;;;;;;;;;;;;;;;;;;2082212;28;19924;-58
2021/09/02 03:01:10;;;;;;;;;;;;;;;;;;2081923;28;19971;-59
2021/09/02 03:02:11;;;;;;;;;;;;;;;;;;2086567;28;20389;-59
2021/09/02 03:03:12;;;;;;;;;;;;;;;;;;2090154;28;19921;-59
2021/09/02 03:04:13;;;;;;;;;;;;;;;;;;2090188;28;20392;-59
2021/09/02 03:05:14;;;;;;;;;;;;;;;;;;2087725;28;20004;-59
2021/09/02 03:06:15;;;;;;;;;;;;;;;;;;2090362;28;19970;-59
2021/09/02 03:07:16;;;;;;;;;;;;;;;;;;2090176;28;19921;-60
2021/09/02 03:08:16;;;;;;;;;;;;;;;;;;2087079;28;19920;-59
2021/09/02 03:09:17;;;;;;;;;;;;;;;;;;2090224;28;19943;-59
2021/09/02 03:10:18;;;;;;;;;;;;;;;;;;2089650;28;19974;-60
2021/09/02 03:11:19;;;;;;;;;;;;;;;;;;2088267;28;19928;-59
2021/09/02 03:12:20;;;;;;;;;;;;;;;;;;2090363;28;20380;-59
2021/09/02 03:13:21;;;;;;;;;;;;;;;;;;2089732;28;19925;-59
2021/09/02 03:14:21;;;;;;;;;;;;;;;;;;2088127;28;19920;-59
2021/09/02 03:15:22;;;;;;;;;;;;;;;;;;2090253;28;19928;-59
2021/09/02 03:16:23;;;;;;;;;;;;;;;;;;2089557;28;19927;-59
2021/09/02 03:17:24;;;;;;;;;;;;;;;;;;2089317;28;19921;-59
2021/09/02 03:18:24;;;;;;;;;;;;;;;;;;2090158;28;20448;-59
2021/09/02 03:19:25;;;;;;;;;;;;;;;;;;2089561;28;20282;-59
2021/09/02 03:20:26;;;;;;;;;;;;;;;;;;2088260;28;19921;-59
2021/09/02 03:21:27;;;;;;;;;;;;;;;;;;2090103;28;19963;-60
2021/09/02 03:22:28;;;;;;;;;;;;;;;;;;2089018;28;19972;-59
2021/09/02 03:23:29;;;;;;;;;;;;;;;;;;2088551;28;19925;-59
2021/09/02 03:24:29;;;;;;;;;;;;;;;;;;2090188;28;19928;-59
2021/09/02 03:25:30;;;;;;;;;;;;;;;;;;2089111;28;20373;-59
2021/09/02 03:26:31;;;;;;;;;;;;;;;;;;2083678;28;19925;-59
2021/09/02 03:27:32;;;;;;;;;;;;;;;;;;2081871;28;19927;-60
2021/09/02 03:28:33;;;;;;;;;;;;;;;;;;2085031;28;19929;-59
2021/09/02 03:29:34;;;;;;;;;;;;;;;;;;2084054;28;19928;-62
2021/09/02 03:30:37;;;;;;;;;;;;;;;;;;2081815;28;20367;-59
2021/09/02 03:31:38;;;;;;;;;;;;;;;;;;2085451;28;19951;-59
2021/09/02 03:32:38;;;;;;;;;;;;;;;;;;2089329;28;19940;-59
2021/09/02 03:33:39;;;;;;;;;;;;;;;;;;2090144;28;19966;-59
2021/09/02 03:34:40;;;;;;;;;;;;;;;;;;2087910;28;19983;-59
2021/09/02 03:35:41;;;;;;;;;;;;;;;;;;2088802;28;19920;-61
2021/09/02 03:36:45;;;;;;;;;;;;;;;;;;2089930;28;20378;-59
2021/09/02 03:37:46;;;;;;;;;;;;;;;;;;2087752;28;20019;-59
2021/09/02 03:38:46;;;;;;;;;;;;;;;;;;2089848;28;19920;-59
2021/09/02 03:39:47;;;;;;;;;;;;;;;;;;2090125;28;20053;-59
2021/09/02 03:40:48;;;;;;;;;;;;;;;;;;2087906;28;20022;-59
2021/09/02 03:41:49;;;;;;;;;;;;;;;;;;2081477;28;20433;-59
2021/09/02 03:42:50;;;;;;;;;;;;;;;;;;2081799;28;20332;-59
2021/09/02 03:43:51;;;;;;;;;;;;;;;;;;2087280;28;19947;-59
2021/09/02 03:44:51;;;;;;;;;;;;;;;;;;2081655;28;19921;-59
2021/09/02 03:45:52;;;;;;;;;;;;;;;;;;2081415;28;19932;-58
2021/09/02 03:46:53;;;;;;;;;;;;;;;;;;2087442;28;20138;-59
2021/09/02 03:47:54;;;;;;;;;;;;;;;;;;2081612;28;20021;-59
2021/09/02 03:48:55;;;;;;;;;;;;;;;;;;2082206;28;20358;-58
2021/09/02 03:49:56;;;;;;;;;;;;;;;;;;2088004;28;19920;-58
2021/09/02 03:50:57;;;;;;;;;;;;;;;;;;2088489;28;19942;-59
2021/09/02 03:51:57;;;;;;;;;;;;;;;;;;2089480;28;19944;-59
2021/09/02 03:52:58;;;;;;;;;;;;;;;;;;2088029;28;19921;-59
2021/09/02 03:53:59;;;;;;;;;;;;;;;;;;2090049;28;19927;-59
2021/09/02 03:55:00;;;;;;;;;;;;;;;;;;2089314;28;20361;-59
2021/09/02 03:56:01;;;;;;;;;;;;;;;;;;2085486;28;19972;-59
2021/09/02 03:57:02;;;;;;;;;;;;;;;;;;2081685;28;19921;-59
2021/09/02 03:58:02;;;;;;;;;;;;;;;;;;2083657;28;19930;-60
2021/09/02 03:59:04;;;;;;;;;;;;;;;;;;2085156;28;19921;-59
2021/09/02 04:00:04;;;;;;;;;;;;;;;;;;2081600;28;20384;-58
2021/09/02 04:01:05;;;;;;;;;;;;;;;;;;2084157;28;19920;-58
2021/09/02 04:02:06;;;;;;;;;;;;;;;;;;2084704;28;19921;-59
2021/09/02 04:03:07;;;;;;;;;;;;;;;;;;2081533;28;19921;-59
2021/09/02 04:04:08;;;;;;;;;;;;;;;;;;2084845;28;19925;-59
2021/09/02 04:05:09;;;;;;;;;;;;;;;;;;2088492;28;19921;-59
2021/09/02 04:06:10;;;;;;;;;;;;;;;;;;2089669;28;20011;-59
2021/09/02 04:07:11;;;;;;;;;;;;;;;;;;2088876;28;19925;-59
2021/09/02 04:08:11;;;;;;;;;;;;;;;;;;2088567;28;19943;-59
2021/09/02 04:09:12;;;;;;;;;;;;;;;;;;2089840;28;20286;-59
2021/09/02 04:10:13;;;;;;;;;;;;;;;;;;2088639;28;19929;-59
2021/09/02 04:11:14;;;;;;;;;;;;;;;;;;2082709;28;20349;-58
2021/09/02 04:12:15;;;;;;;;;;;;;;;;;;2081627;28;20402;-60
2021/09/02 04:13:16;;;;;;;;;;;;;;;;;;2085327;28;19921;-59
2021/09/02 04:14:16;;;;;;;;;;;;;;;;;;2089791;28;20320;-59
2021/09/02 04:15:17;;;;;;;;;;;;;;;;;;2089654;28;20459;-59
2021/09/02 04:16:18;;;;;;;;;;;;;;;;;;2088632;28;19921;-59
2021/09/02 04:17:19;;;;;;;;;;;;;;;;;;2081508;28;19921;-59
2021/09/02 04:18:20;;;;;;;;;;;;;;;;;;2081683;28;19921;-59
2021/09/02 04:19:21;;;;;;;;;;;;;;;;;;2086489;28;20336;-59
2021/09/02 04:20:21;;;;;;;;;;;;;;;;;;2089799;28;19952;-63
2021/09/02 04:21:22;;;;;;;;;;;;;;;;;;2089791;28;20282;-59
2021/09/02 04:22:23;;;;;;;;;;;;;;;;;;2087642;28;19920;-59
2021/09/02 04:23:24;;;;;;;;;;;;;;;;;;2081374;28;19921;-59
2021/09/02 04:24:26;;;;;;;;;;;;;;;;;;2081192;28;19921;-59
2021/09/02 04:25:27;;;;;;;;;;;;;;;;;;2087777;28;21152;-59
2021/09/02 04:26:27;;;;;;;;;;;;;;;;;;2089713;28;19925;-59
2021/09/02 04:27:29;;;;;;;;;;;;;;;;;;2089507;28;19928;-59
2021/09/02 04:28:29;;;;;;;;;;;;;;;;;;2087761;28;19921;-59
2021/09/02 04:29:30;;;;;;;;;;;;;;;;;;2089853;28;20291;-59
2021/09/02 04:30:31;;;;;;;;;;;;;;;;;;2089189;28;19928;-59
2021/09/02 04:31:32;;;;;;;;;;;;;;;;;;2085965;28;19979;-58
2021/09/02 04:32:33;;;;;;;;;;;;;;;;;;2081623;28;19943;-59
2021/09/02 04:33:34;;;;;;;;;;;;;;;;;;2082991;28;19999;-60
2021/09/02 04:34:34;;;;;;;;;;;;;;;;;;2087993;28;19927;-59
2021/09/02 04:35:35;;;;;;;;;;;;;;;;;;2089486;28;19967;-59
2021/09/02 04:36:36;;;;;;;;;;;;;;;;;;2088823;28;19927;-59
2021/09/02 04:37:37;;;;;;;;;;;;;;;;;;2085008;28;20035;-59
2021/09/02 04:38:38;;;;;;;;;;;;;;;;;;2081564;28;19964;-59
2021/09/02 04:39:39;;;;;;;;;;;;;;;;;;2083941;28;19920;-59
2021/09/02 04:40:40;;;;;;;;;;;;;;;;;;2084269;28;19928;-59
2021/09/02 04:41:41;;;;;;;;;;;;;;;;;;2081416;28;19975;-59
2021/09/02 04:42:41;;;;;;;;;;;;;;;;;;2084360;28;20266;-58
2021/09/02 04:43:42;;;;;;;;;;;;;;;;;;2087388;28;20373;-59
2021/09/02 04:44:43;;;;;;;;;;;;;;;;;;2089591;28;19950;-59
2021/09/02 04:45:44;;;;;;;;;;;;;;;;;;2088573;28;19921;-60
2021/09/02 04:46:44;;;;;;;;;;;;;;;;;;2088174;28;19927;-59
2021/09/02 04:47:45;;;;;;;;;;;;;;;;;;2089739;28;19921;-59
2021/09/02 04:48:46;;;;;;;;;;;;;;;;;;2088028;28;19924;-59
2021/09/02 04:49:47;;;;;;;;;;;;;;;;;;2088834;28;19928;-59
2021/09/02 04:50:48;;;;;;;;;;;;;;;;;;2084587;28;20424;-59
2021/09/02 04:51:49;;;;;;;;;;;;;;;;;;2086161;28;19928;-59
2021/09/02 04:52:49;;;;;;;;;;;;;;;;;;2088572;28;20149;-59
2021/09/02 04:53:50;;;;;;;;;;;;;;;;;;2090647;28;19925;-59
2021/09/02 04:54:51;;;;;;;;;;;;;;;;;;2089795;28;19951;-59
2021/09/02 04:55:52;;;;;;;;;;;;;;;;;;2091180;28;19928;-46
2021/09/02 04:56:53;;;;;;;;;;;;;;;;;;2091008;28;19924;-45
2021/09/02 04:57:54;;;;;;;;;;;;;;;;;;2089484;28;19959;-45
2021/09/02 04:58:54;;;;;;;;;;;;;;;;;;2082907;28;19967;-45
2021/09/02 04:59:55;;;;;;;;;;;;;;;;;;2082816;28;20333;-45
2021/09/02 05:00:56;;;;;;;;;;;;;;;;;;2088302;28;20267;-45
2021/09/02 05:01:57;;;;;;;;;;;;;;;;;;2082838;28;19943;-45
2021/09/02 05:02:58;;;;;;;;;;;;;;;;;;2082917;28;19953;-45
2021/09/02 05:04:00;;;;;;;;;;;;;;;;;;2087799;28;19925;-45
2021/09/02 05:05:00;;;;;;;;;;;;;;;;;;2091133;28;20029;-45
2021/09/02 05:06:01;;;;;;;;;;;;;;;;;;2090608;28;19924;-45
2021/09/02 05:07:02;;;;;;;;;;;;;;;;;;2089017;28;19925;-45
2021/09/02 05:08:03;;;;;;;;;;;;;;;;;;2091075;28;20282;-45
2021/09/02 05:09:04;;;;;;;;;;;;;;;;;;2090543;28;19969;-45
2021/09/02 05:10:05;;;;;;;;;;;;;;;;;;2089025;28;19932;-45
2021/09/02 05:11:07;;;;;;;;;;;;;;;;;;2090837;28;19947;-45
2021/09/02 05:12:08;;;;;;;;;;;;;;;;;;2090654;28;19928;-45
2021/09/02 05:13:09;;;;;;;;;;;;;;;;;;2086743;28;20255;-45
2021/09/02 05:14:10;;;;;;;;;;;;;;;;;;2082691;28;19967;-45
2021/09/02 05:15:11;;;;;;;;;;;;;;;;;;2085700;28;19928;-45
2021/09/02 05:16:12;;;;;;;;;;;;;;;;;;2089391;28;19924;-45
2021/09/02 05:17:12;;;;;;;;;;;;;;;;;;2090986;28;20007;-45
2021/09/02 05:18:13;;;;;;;;;;;;;;;;;;2089880;28;19925;-45
2021/09/02 05:19:14;;;;;;;;;;;;;;;;;;2089475;28;19970;-45
2021/09/02 05:20:15;;;;;;;;;;;;;;;;;;2090782;28;20378;-45
2021/09/02 05:21:16;;;;;;;;;;;;;;;;;;2090087;28;19920;-45
2021/09/02 05:22:17;;;;;;;;;;;;;;;;;;2085068;28;19921;-45
2021/09/02 05:23:17;;;;;;;;;;;;;;;;;;2082836;28;19924;-45
2021/09/02 05:24:18;;;;;;;;;;;;;;;;;;2086408;28;20273;-45
2021/09/02 05:25:19;;;;;;;;;;;;;;;;;;2089602;28;20388;-45
2021/09/02 05:26:20;;;;;;;;;;;;;;;;;;2090841;28;19920;-45
2021/09/02 05:27:21;;;;;;;;;;;;;;;;;;2089787;28;20057;-45
2021/09/02 05:28:21;;;;;;;;;;;;;;;;;;2090750;28;19955;-45
2021/09/02 05:29:22;;;;;;;;;;;;;;;;;;2090857;28;19968;-45
2021/09/02 05:30:23;;;;;;;;;;;;;;;;;;2088487;28;19920;-44
2021/09/02 05:31:24;;;;;;;;;;;;;;;;;;2090637;28;19921;-45
2021/09/02 05:32:25;;;;;;;;;;;;;;;;;;2090773;28;20282;-45
2021/09/02 05:33:26;;;;;;;;;;;;;;;;;;2089733;28;19921;-45
2021/09/02 05:34:27;;;;;;;;;;;;;;;;;;2082938;28;19948;-45
2021/09/02 05:35:28;;;;;;;;;;;;;;;;;;2082597;28;20013;-45
2021/09/02 05:36:29;;;;;;;;;;;;;;;;;;2087866;28;19928;-45
2021/09/02 05:37:30;;;;;;;;;;;;;;;;;;2090891;28;20369;-45
2021/09/02 05:38:31;;;;;;;;;;;;;;;;;;2090673;28;19925;-45
2021/09/02 05:39:32;;;;;;;;;;;;;;;;;;2086753;28;19921;-45
2021/09/02 05:40:33;;;;;;;;;;;;;;;;;;2082551;28;19921;-45
2021/09/02 05:41:33;;;;;;;;;;;;;;;;;;2084281;28;19921;-45
2021/09/02 05:42:34;;;;;;;;;;;;;;;;;;2084460;28;20012;-45
2021/09/02 05:43:35;;;;;;;;;;;;;;;;;;2082661;28;20385;-45
2021/09/02 05:44:36;;;;;;;;;;;;;;;;;;2086194;28;20362;-45
2021/09/02 05:45:37;;;;;;;;;;;;;;;;;;2089400;28;20015;-45
2021/09/02 05:46:37;;;;;;;;;;;;;;;;;;2090831;28;20324;-45
2021/09/02 05:47:39;;;;;;;;;;;;;;;;;;2088791;28;20362;-45
2021/09/02 05:48:39;;;;;;;;;;;;;;;;;;2089685;28;19921;-45
2021/09/02 05:49:40;;;;;;;;;;;;;;;;;;2090660;28;19921;-45
2021/09/02 05:50:41;;;;;;;;;;;;;;;;;;2086000;28;19977;-45
2021/09/02 05:51:42;;;;;;;;;;;;;;;;;;2090541;28;19927;-45
2021/09/02 05:52:43;;;;;;;;;;;;;;;;;;2090707;28;19928;-45
2021/09/02 05:53:44;;;;;;;;;;;;;;;;;;2088704;28;19968;-45
2021/09/02 05:54:45;;;;;;;;;;;;;;;;;;2082578;28;19984;-45
2021/09/02 05:55:48;;;;;;;;;;;;;;;;;;2082532;28;20438;-59
2021/09/02 05:56:49;;;;;;;;;;;;;;;;;;2088096;28;19925;-59
2021/09/02 05:57:50;;;;;;;;;;;;;;;;;;2090578;28;20412;-60
2021/09/02 05:58:50;;;;;;;;;;;;;;;;;;2090236;28;19924;-59
2021/09/02 05:59:51;;;;;;;;;;;;;;;;;;2088153;28;19936;-58
2021/09/02 06:00:52;;;;;;;;;;;;;;;;;;2082293;28;20384;-59
2021/09/02 06:01:53;;;;;;;;;;;;;;;;;;2082813;28;20015;-59
2021/09/02 06:02:54;;;;;;;;;;;;;;;;;;2085469;28;20152;-59
2021/09/02 06:03:55;;;;;;;;;;;;;;;;;;2082298;28;19921;-59
2021/09/02 06:04:56;;;;;;;;;;;;;;;;;;2084914;28;20346;-59
2021/09/02 06:05:57;;;;;;;;;;;;;;;;;;2088383;28;19966;-59
2021/09/02 06:06:58;;;;;;;;;;;;;;;;;;2090725;28;19921;-59
2021/09/02 06:07:58;;;;;;;;;;;;;;;;;;2089848;28;19921;-59
2021/09/02 06:08:59;;;;;;;;;;;;;;;;;;2089275;28;19920;-59
2021/09/02 06:10:00;;;;;;;;;;;;;;;;;;2090534;28;19928;-59
2021/09/02 06:11:02;;;;;;;;;;;;;;;;;;2089210;28;19925;-59
2021/09/02 06:12:03;;;;;;;;;;;;;;;;;;2090346;28;20224;-59
2021/09/02 06:13:04;;;;;;;;;;;;;;;;;;2090671;28;19920;-59
2021/09/02 06:14:05;;;;;;;;;;;;;;;;;;2089404;28;20314;-59
2021/09/02 06:15:06;;;;;;;;;;;;;;;;;;2083365;28;19921;-59
2021/09/02 06:16:07;;;;;;;;;;;;;;;;;;2082320;28;19921;-59
2021/09/02 06:17:08;;;;;;;;;;;;;;;;;;2087381;28;19921;-59
2021/09/02 06:18:09;;;;;;;;;;;;;;;;;;2082427;28;20168;-60
2021/09/02 06:19:10;;;;;;;;;;;;;;;;;;2082306;28;19928;-59
2021/09/02 06:20:11;;;;;;;;;;;;;;;;;;2087008;28;20234;-59
2021/09/02 06:21:11;;;;;;;;;;;;;;;;;;2090486;28;19931;-59
2021/09/02 06:22:12;;;;;;;;;;;;;;;;;;2090539;28;19990;-59
2021/09/02 06:23:13;;;;;;;;;;;;;;;;;;2088441;28;19922;-59
2021/09/02 06:24:14;;;;;;;;;;;;;;;;;;2082284;28;19950;-59
2021/09/02 06:25:15;;;;;;;;;;;;;;;;;;2082272;28;19922;-59
2021/09/02 06:26:16;;;;;;;;;;;;;;;;;;2086976;28;20257;-59
2021/09/02 06:27:17;;;;;;;;;;;;;;;;;;2082153;28;20341;-59
2021/09/02 06:28:17;;;;;;;;;;;;;;;;;;2082568;28;19921;-59
2021/09/02 06:29:18;;;;;;;;;;;;;;;;;;2087663;28;20357;-59
2021/09/02 06:30:19;;;;;;;;;;;;;;;;;;2082092;28;19928;-59
2021/09/02 06:31:20;;;;;;;;;;;;;;;;;;2083156;28;19928;-59
2021/09/02 06:32:21;;;;;;;;;;;;;;;;;;2088505;28;19920;-59
2021/09/02 06:33:21;;;;;;;;;;;;;;;;;;2090565;28;19984;-59
2021/09/02 06:34:22;;;;;;;;;;;;;;;;;;2089797;28;20285;-59
2021/09/02 06:35:23;;;;;;;;;;;;;;;;;;2088527;28;19928;-59
2021/09/02 06:36:24;;;;;;;;;;;;;;;;;;2090580;28;19927;-45
2021/09/02 06:37:25;;;;;;;;;;;;;;;;;;2089762;28;19920;-45
2021/09/02 06:38:26;;;;;;;;;;;;;;;;;;2085050;28;19963;-45
2021/09/02 06:39:27;;;;;;;;;;;;;;;;;;2082227;28;19967;-46
2021/09/02 06:40:27;;;;;;;;;;;;;;;;;;2084660;28;19921;-59
2021/09/02 06:41:28;;;;;;;;;;;;;;;;;;2088752;28;19963;-60
2021/09/02 06:42:29;;;;;;;;;;;;;;;;;;2090241;28;20293;-59
2021/09/02 06:43:30;;;;;;;;;;;;;;;;;;2089281;28;20011;-59
2021/09/02 06:44:31;;;;;;;;;;;;;;;;;;2088059;28;19975;-59
2021/09/02 06:45:32;;;;;;;;;;;;;;;;;;2090280;28;20397;-60
2021/09/02 06:46:33;;;;;;;;;;;;;;;;;;2089435;28;20358;-59
2021/09/02 06:47:34;;;;;;;;;;;;;;;;;;2088921;28;19928;-59
2021/09/02 06:48:38;;;;;;;;;;;;;;;;;;2090290;28;20381;-59
2021/09/02 06:49:39;;;;;;;;;;;;;;;;;;2088574;28;19956;-59
2021/09/02 06:50:39;;;;;;;;;;;;;;;;;;2085988;28;19921;-60
2021/09/02 06:51:40;;;;;;;;;;;;;;;;;;2082132;28;19928;-59
2021/09/02 06:52:41;;;;;;;;;;;;;;;;;;2086951;28;19927;-59
2021/09/02 06:53:42;;;;;;;;;;;;;;;;;;2082596;28;19921;-59
2021/09/02 06:54:43;;;;;;;;;;;;;;;;;;2082077;28;19967;-59
2021/09/02 06:55:44;;;;;;;;;;;;;;;;;;2087568;28;19928;-59